Check out our new PWSWeather beta!
PWSweather.com
Personal Weather Stations
Station Observations
SHAHALMS1
Eftra, Falkenberg, HA

EftraFalkenberg, HA

Lat: 56.85, Lon: 12.65

Elevation: 140

Station Type:

http://hem.passagen.se/risarp101

High Low Average
Temperature 69.6°F20.9°C 50.9°F10.5°C 59.0°F15.0°C
Dew Point 59.1°F15.1°C 46.2°F7.9°C 51.9°F11.1°C
Winds 10.5 mph 16.9 kmh Calm Calm 4.0 mph ESE6.4 kmh ESE
Wind Gusts 26.8 mph43.1 kmh -- 8.0 mph12.9 kmh
Humidity 93% 52% 79%
Pressure 29.92 in1013.2 mb 29.77 in1008.1 mb -
Precipitation 0.09 in2.3 mm - -
Hour Temp Dew Point Humidity Winds Wind Gusts Pressure Precip Precip Rate Daily Precip Total
12:00 AM 51.6°F10.9°C 46.3°F7.9°C 82% Calm Calm -- 29.92 in1013.2 mb 0.00 in0.0 mm 0.00 in0.0 mm 0.00 in0.0 mm
12:10 AM 51.4°F10.8°C 46.4°F8.0°C 83% Calm Calm -- 29.92 in1013.2 mb 0.00 in0.0 mm 0.00 in0.0 mm 0.00 in0.0 mm
12:20 AM 51.3°F10.7°C 46.3°F7.9°C 83% Calm Calm -- 29.92 in1013.2 mb 0.00 in0.0 mm 0.00 in0.0 mm 0.00 in0.0 mm
12:30 AM 51.3°F10.7°C 46.3°F7.9°C 83% Calm Calm -- 29.92 in1013.2 mb 0.00 in0.0 mm 0.00 in0.0 mm 0.00 in0.0 mm
12:40 AM 51.3°F10.7°C 46.6°F8.1°C 84% Calm Calm -- 29.92 in1013.2 mb 0.00 in0.0 mm 0.00 in0.0 mm 0.00 in0.0 mm
12:50 AM 51.1°F10.6°C 46.4°F8.0°C 84% Calm Calm -- 29.92 in1013.2 mb 0.00 in0.0 mm 0.00 in0.0 mm 0.00 in0.0 mm
01:00 AM 50.9°F10.5°C 46.2°F7.9°C 84% Calm Calm -- 29.92 in1013.2 mb 0.00 in0.0 mm 0.00 in0.0 mm 0.00 in0.0 mm
01:10 AM 50.9°F10.5°C 46.2°F7.9°C 84% Calm Calm -- 29.92 in1013.2 mb 0.00 in0.0 mm 0.00 in0.0 mm 0.00 in0.0 mm
01:20 AM 50.9°F10.5°C 46.2°F7.9°C 84% 1.4 mph SSE2.3 kmh SSE 2.5 mph4.0 kmh 29.92 in1013.2 mb 0.00 in0.0 mm 0.00 in0.0 mm 0.00 in0.0 mm
01:30 AM 50.9°F10.5°C 46.6°F8.1°C 85% 0.5 mph SSE0.8 kmh SSE 2.5 mph4.0 kmh 29.92 in1013.2 mb 0.00 in0.0 mm 0.00 in0.0 mm 0.00 in0.0 mm
01:40 AM 51.3°F10.7°C 46.9°F8.3°C 85% Calm Calm -- 29.92 in1013.2 mb 0.00 in0.0 mm 0.00 in0.0 mm 0.00 in0.0 mm
01:50 AM 51.4°F10.8°C 47.4°F8.6°C 86% Calm Calm -- 29.92 in1013.2 mb 0.00 in0.0 mm 0.00 in0.0 mm 0.00 in0.0 mm
02:00 AM 51.6°F10.9°C 47.6°F8.7°C 86% Calm Calm -- 29.89 in1012.2 mb 0.00 in0.0 mm 0.00 in0.0 mm 0.00 in0.0 mm
02:10 AM 51.6°F10.9°C 47.9°F8.8°C 87% Calm Calm -- 29.89 in1012.2 mb 0.00 in0.0 mm 0.00 in0.0 mm 0.00 in0.0 mm
02:20 AM 51.4°F10.8°C 47.4°F8.6°C 86% Calm Calm -- 29.92 in1013.2 mb 0.00 in0.0 mm 0.00 in0.0 mm 0.00 in0.0 mm
02:30 AM 51.4°F10.8°C 47.4°F8.6°C 86% Calm Calm -- 29.89 in1012.2 mb 0.00 in0.0 mm 0.00 in0.0 mm 0.00 in0.0 mm
02:40 AM 51.4°F10.8°C 47.7°F8.7°C 87% Calm Calm -- 29.89 in1012.2 mb 0.00 in0.0 mm 0.00 in0.0 mm 0.00 in0.0 mm
02:50 AM 51.6°F10.9°C 47.9°F8.8°C 87% Calm Calm -- 29.89 in1012.2 mb 0.00 in0.0 mm 0.00 in0.0 mm 0.00 in0.0 mm
03:00 AM 51.6°F10.9°C 47.9°F8.8°C 87% Calm Calm -- 29.89 in1012.2 mb 0.00 in0.0 mm 0.00 in0.0 mm 0.00 in0.0 mm
03:10 AM 51.6°F10.9°C 47.9°F8.8°C 87% Calm Calm -- 29.89 in1012.2 mb 0.00 in0.0 mm 0.00 in0.0 mm 0.00 in0.0 mm
03:20 AM 51.6°F10.9°C 48.2°F9.0°C 88% Calm Calm -- 29.86 in1011.2 mb 0.00 in0.0 mm 0.00 in0.0 mm 0.00 in0.0 mm
03:30 AM 51.8°F11.0°C 48.4°F9.1°C 88% Calm Calm -- 29.89 in1012.2 mb 0.00 in0.0 mm 0.00 in0.0 mm 0.00 in0.0 mm
03:40 AM 52.0°F11.1°C 48.5°F9.2°C 88% Calm Calm -- 29.89 in1012.2 mb 0.00 in0.0 mm 0.00 in0.0 mm 0.00 in0.0 mm
03:50 AM 52.0°F11.1°C 48.5°F9.2°C 88% Calm Calm -- 29.92 in1013.2 mb 0.00 in0.0 mm 0.00 in0.0 mm 0.00 in0.0 mm
04:00 AM 52.0°F11.1°C 48.5°F9.2°C 88% Calm Calm -- 29.89 in1012.2 mb 0.00 in0.0 mm 0.00 in0.0 mm 0.00 in0.0 mm
04:10 AM 52.0°F11.1°C 48.8°F9.3°C 89% Calm Calm -- 29.89 in1012.2 mb 0.00 in0.0 mm 0.00 in0.0 mm 0.00 in0.0 mm
04:20 AM 52.0°F11.1°C 48.8°F9.3°C 89% Calm Calm -- 29.89 in1012.2 mb 0.00 in0.0 mm 0.00 in0.0 mm 0.00 in0.0 mm
04:30 AM 52.0°F11.1°C 48.8°F9.3°C 89% Calm Calm -- 29.89 in1012.2 mb 0.00 in0.0 mm 0.00 in0.0 mm 0.00 in0.0 mm
04:40 AM 52.2°F11.2°C 49.0°F9.4°C 89% Calm Calm -- 29.89 in1012.2 mb 0.00 in0.0 mm 0.00 in0.0 mm 0.00 in0.0 mm
04:50 AM 52.5°F11.4°C 49.4°F9.7°C 89% Calm Calm -- 29.89 in1012.2 mb 0.00 in0.0 mm 0.00 in0.0 mm 0.00 in0.0 mm
05:00 AM 52.7°F11.5°C 49.8°F9.9°C 90% Calm Calm -- 29.89 in1012.2 mb 0.00 in0.0 mm 0.00 in0.0 mm 0.00 in0.0 mm
05:10 AM 53.1°F11.7°C 50.2°F10.1°C 90% 2.1 mph SE3.4 kmh SE 6.4 mph10.3 kmh 29.89 in1012.2 mb 0.00 in0.0 mm 0.00 in0.0 mm 0.00 in0.0 mm
05:20 AM 53.2°F11.8°C 50.7°F10.4°C 91% 3.4 mph SE5.5 kmh SE 6.4 mph10.3 kmh 29.89 in1012.2 mb 0.00 in0.0 mm 0.00 in0.0 mm 0.00 in0.0 mm
05:30 AM 53.6°F12.0°C 51.0°F10.6°C 91% 2.5 mph SE4.0 kmh SE 7.2 mph11.6 kmh 29.89 in1012.2 mb 0.00 in0.0 mm 0.00 in0.0 mm 0.00 in0.0 mm
05:40 AM 53.8°F12.1°C 51.2°F10.7°C 91% 1.0 mph S1.6 kmh S 5.7 mph9.2 kmh 29.89 in1012.2 mb 0.00 in0.0 mm 0.00 in0.0 mm 0.00 in0.0 mm
05:50 AM 54.1°F12.3°C 51.6°F10.9°C 91% 0.2 mph SSE0.3 kmh SSE 1.8 mph2.9 kmh 29.89 in1012.2 mb 0.00 in0.0 mm 0.00 in0.0 mm 0.00 in0.0 mm
06:00 AM 54.5°F12.5°C 51.9°F11.1°C 91% Calm Calm -- 29.89 in1012.2 mb 0.00 in0.0 mm 0.00 in0.0 mm 0.00 in0.0 mm
06:10 AM 54.9°F12.7°C 52.6°F11.4°C 92% 1.4 mph S2.3 kmh S 10.0 mph16.1 kmh 29.89 in1012.2 mb 0.00 in0.0 mm 0.00 in0.0 mm 0.00 in0.0 mm
06:20 AM 55.4°F13.0°C 53.1°F11.7°C 92% 1.3 mph S2.1 kmh S 2.1 mph3.4 kmh 29.89 in1012.2 mb 0.00 in0.0 mm 0.00 in0.0 mm 0.00 in0.0 mm
06:30 AM 55.6°F13.1°C 53.3°F11.8°C 92% 1.1 mph S1.8 kmh S 2.5 mph4.0 kmh 29.89 in1012.2 mb 0.00 in0.0 mm 0.00 in0.0 mm 0.00 in0.0 mm
06:40 AM 55.9°F13.3°C 53.6°F12.0°C 92% 1.8 mph S2.9 kmh S 5.4 mph8.7 kmh 29.89 in1012.2 mb 0.05 in1.3 mm 0.30 in7.6 mm 0.05 in1.3 mm
06:50 AM 55.9°F13.3°C 53.6°F12.0°C 92% Calm Calm -- 29.89 in1012.2 mb 0.05 in1.3 mm 0.00 in0.0 mm 0.05 in1.3 mm
07:00 AM 56.1°F13.4°C 53.8°F12.1°C 92% 0.4 mph E0.6 kmh E 5.0 mph8.0 kmh 29.89 in1012.2 mb 0.05 in1.3 mm 0.00 in0.0 mm 0.05 in1.3 mm
07:10 AM 56.1°F13.4°C 53.8°F12.1°C 92% 0.3 mph E0.5 kmh E 5.0 mph8.0 kmh 29.89 in1012.2 mb 0.05 in1.3 mm 0.00 in0.0 mm 0.05 in1.3 mm
07:20 AM 56.3°F13.5°C 54.0°F12.2°C 92% 0.8 mph E1.3 kmh E 4.7 mph7.6 kmh 29.89 in1012.2 mb 0.05 in1.3 mm 0.00 in0.0 mm 0.05 in1.3 mm
07:30 AM 56.7°F13.7°C 54.4°F12.4°C 92% 2.7 mph ESE4.3 kmh ESE 9.3 mph15.0 kmh 29.89 in1012.2 mb 0.05 in1.3 mm 0.00 in0.0 mm 0.05 in1.3 mm
07:40 AM 56.8°F13.8°C 54.5°F12.5°C 92% 1.9 mph E3.1 kmh E 9.3 mph15.0 kmh 29.89 in1012.2 mb 0.00 in0.0 mm 0.00 in0.0 mm 0.05 in1.3 mm
07:50 AM 57.0°F13.9°C 55.0°F12.8°C 93% 3.8 mph SE6.1 kmh SE 8.9 mph14.3 kmh 29.89 in1012.2 mb 0.00 in0.0 mm 0.00 in0.0 mm 0.05 in1.3 mm
08:00 AM 57.6°F14.2°C 55.6°F13.1°C 93% 4.0 mph SE6.4 kmh SE 8.9 mph14.3 kmh 29.86 in1011.2 mb 0.00 in0.0 mm 0.00 in0.0 mm 0.05 in1.3 mm
08:10 AM 58.1°F14.5°C 56.1°F13.4°C 93% 4.2 mph SE6.8 kmh SE 7.9 mph12.7 kmh 29.86 in1011.2 mb 0.00 in0.0 mm 0.00 in0.0 mm 0.05 in1.3 mm
08:20 AM 58.1°F14.5°C 56.1°F13.4°C 93% 4.2 mph SE6.8 kmh SE 6.8 mph10.9 kmh 29.86 in1011.2 mb 0.00 in0.0 mm 0.00 in0.0 mm 0.05 in1.3 mm
08:30 AM 58.3°F14.6°C 56.3°F13.5°C 93% 3.5 mph E5.6 kmh E 4.3 mph6.9 kmh 29.86 in1011.2 mb 0.00 in0.0 mm 0.00 in0.0 mm 0.05 in1.3 mm
08:40 AM 58.5°F14.7°C 56.4°F13.6°C 93% 3.9 mph E6.3 kmh E 5.7 mph9.2 kmh 29.86 in1011.2 mb 0.00 in0.0 mm 0.00 in0.0 mm 0.05 in1.3 mm
08:50 AM 58.5°F14.7°C 56.1°F13.4°C 92% 5.1 mph E8.2 kmh E 10.0 mph16.1 kmh 29.86 in1011.2 mb 0.00 in0.0 mm 0.00 in0.0 mm 0.05 in1.3 mm
09:00 AM 58.6°F14.8°C 56.0°F13.3°C 91% 5.2 mph E8.4 kmh E 6.4 mph10.3 kmh 29.83 in1010.2 mb 0.00 in0.0 mm 0.00 in0.0 mm 0.05 in1.3 mm
09:10 AM 58.8°F14.9°C 56.2°F13.4°C 91% 4.9 mph ESE7.9 kmh ESE 6.4 mph10.3 kmh 29.83 in1010.2 mb 0.00 in0.0 mm 0.00 in0.0 mm 0.05 in1.3 mm
09:20 AM 59.5°F15.3°C 56.9°F13.8°C 91% 4.6 mph SE7.4 kmh SE 6.4 mph10.3 kmh 29.83 in1010.2 mb 0.00 in0.0 mm 0.00 in0.0 mm 0.05 in1.3 mm
09:30 AM 60.1°F15.6°C 57.4°F14.1°C 91% 2.2 mph E3.5 kmh E 6.4 mph10.3 kmh 29.83 in1010.2 mb 0.00 in0.0 mm 0.00 in0.0 mm 0.05 in1.3 mm
09:40 AM 60.8°F16.0°C 57.8°F14.3°C 90% 5.1 mph ESE8.2 kmh ESE 9.3 mph15.0 kmh 29.83 in1010.2 mb 0.00 in0.0 mm 0.00 in0.0 mm 0.05 in1.3 mm
09:50 AM 61.3°F16.3°C 57.8°F14.3°C 88% 5.8 mph ESE9.3 kmh ESE 10.7 mph17.2 kmh 29.83 in1010.2 mb 0.00 in0.0 mm 0.00 in0.0 mm 0.05 in1.3 mm
10:00 AM 62.2°F16.8°C 58.3°F14.6°C 87% 4.3 mph E6.9 kmh E 12.2 mph19.6 kmh 29.83 in1010.2 mb 0.00 in0.0 mm 0.00 in0.0 mm 0.05 in1.3 mm
10:10 AM 63.3°F17.4°C 59.1°F15.1°C 86% 2.8 mph SE4.5 kmh SE 10.0 mph16.1 kmh 29.83 in1010.2 mb 0.00 in0.0 mm 0.00 in0.0 mm 0.05 in1.3 mm
10:20 AM 63.9°F17.7°C 58.6°F14.8°C 83% 4.7 mph SE7.6 kmh SE 11.5 mph18.5 kmh 29.83 in1010.2 mb 0.00 in0.0 mm 0.00 in0.0 mm 0.05 in1.3 mm
10:30 AM 64.6°F18.1°C 57.9°F14.4°C 79% 7.0 mph ESE11.3 kmh ESE 16.1 mph25.9 kmh 29.83 in1010.2 mb 0.00 in0.0 mm 0.00 in0.0 mm 0.05 in1.3 mm
10:40 AM 65.3°F18.5°C 58.6°F14.8°C 79% 5.1 mph SE8.2 kmh SE 12.2 mph19.6 kmh 29.83 in1010.2 mb 0.00 in0.0 mm 0.00 in0.0 mm 0.05 in1.3 mm
10:50 AM 66.0°F18.9°C 58.2°F14.6°C 76% 5.9 mph SE9.5 kmh SE 12.5 mph20.1 kmh 29.83 in1010.2 mb 0.00 in0.0 mm 0.00 in0.0 mm 0.05 in1.3 mm
11:00 AM 66.7°F19.3°C 57.8°F14.3°C 73% 6.6 mph SE10.6 kmh SE 14.0 mph22.5 kmh 29.83 in1010.2 mb 0.00 in0.0 mm 0.00 in0.0 mm 0.05 in1.3 mm
11:10 AM 67.1°F19.5°C 57.8°F14.3°C 72% 4.9 mph SE7.9 kmh SE 11.8 mph19.0 kmh 29.83 in1010.2 mb 0.00 in0.0 mm 0.00 in0.0 mm 0.05 in1.3 mm
11:20 AM 67.6°F19.8°C 57.1°F13.9°C 69% 4.5 mph SE7.2 kmh SE 13.6 mph21.9 kmh 29.83 in1010.2 mb 0.00 in0.0 mm 0.00 in0.0 mm 0.05 in1.3 mm
11:30 AM 68.0°F20.0°C 54.9°F12.7°C 63% 6.1 mph SE9.8 kmh SE 16.5 mph26.6 kmh 29.86 in1011.2 mb 0.00 in0.0 mm 0.00 in0.0 mm 0.05 in1.3 mm
11:40 AM 68.2°F20.1°C 55.5°F13.1°C 64% 6.7 mph SE10.8 kmh SE 16.8 mph27.0 kmh 29.86 in1011.2 mb 0.00 in0.0 mm 0.00 in0.0 mm 0.05 in1.3 mm
11:50 AM 68.5°F20.3°C 55.9°F13.3°C 64% 5.4 mph ESE8.7 kmh ESE 14.0 mph22.5 kmh 29.83 in1010.2 mb 0.00 in0.0 mm 0.00 in0.0 mm 0.05 in1.3 mm
12:00 PM 69.1°F20.6°C 55.5°F13.1°C 62% 8.7 mph SE14.0 kmh SE 21.8 mph35.1 kmh 29.83 in1010.2 mb 0.00 in0.0 mm 0.00 in0.0 mm 0.05 in1.3 mm
12:10 PM 69.1°F20.6°C 55.1°F12.8°C 61% 7.5 mph SE12.1 kmh SE 20.0 mph32.2 kmh 29.83 in1010.2 mb 0.00 in0.0 mm 0.00 in0.0 mm 0.05 in1.3 mm
12:20 PM 69.1°F20.6°C 53.7°F12.1°C 58% 7.9 mph SSE12.7 kmh SSE 20.4 mph32.8 kmh 29.83 in1010.2 mb 0.00 in0.0 mm 0.00 in0.0 mm 0.05 in1.3 mm
12:30 PM 69.6°F20.9°C 53.7°F12.1°C 57% 8.3 mph SSE13.4 kmh SSE 16.1 mph25.9 kmh 29.83 in1010.2 mb 0.00 in0.0 mm 0.00 in0.0 mm 0.05 in1.3 mm
12:40 PM 68.7°F20.4°C 52.4°F11.3°C 56% 8.0 mph S12.9 kmh S 19.3 mph31.1 kmh 29.83 in1010.2 mb 0.00 in0.0 mm 0.00 in0.0 mm 0.05 in1.3 mm
12:50 PM 67.6°F19.8°C 50.4°F10.2°C 54% 6.6 mph S10.6 kmh S 15.4 mph24.8 kmh 29.83 in1010.2 mb 0.00 in0.0 mm 0.00 in0.0 mm 0.05 in1.3 mm
01:00 PM 66.6°F19.2°C 49.4°F9.7°C 54% 5.5 mph S8.9 kmh S 12.9 mph20.8 kmh 29.83 in1010.2 mb 0.00 in0.0 mm 0.00 in0.0 mm 0.05 in1.3 mm
01:10 PM 66.2°F19.0°C 50.0°F10.0°C 56% 4.8 mph S7.7 kmh S 12.5 mph20.1 kmh 29.83 in1010.2 mb 0.00 in0.0 mm 0.00 in0.0 mm 0.05 in1.3 mm
01:20 PM 67.8°F19.9°C 52.5°F11.4°C 58% 6.1 mph S9.8 kmh S 16.1 mph25.9 kmh 29.83 in1010.2 mb 0.00 in0.0 mm 0.00 in0.0 mm 0.05 in1.3 mm
01:30 PM 68.7°F20.4°C 51.9°F11.1°C 55% 6.3 mph S10.1 kmh S 19.3 mph31.1 kmh 29.83 in1010.2 mb 0.00 in0.0 mm 0.00 in0.0 mm 0.05 in1.3 mm
01:40 PM 69.1°F20.6°C 52.2°F11.2°C 55% 8.4 mph S13.5 kmh S 26.8 mph43.1 kmh 29.83 in1010.2 mb 0.00 in0.0 mm 0.00 in0.0 mm 0.05 in1.3 mm
01:50 PM 68.4°F20.2°C 51.6°F10.9°C 55% 7.4 mph S11.9 kmh S 21.5 mph34.6 kmh 29.83 in1010.2 mb 0.00 in0.0 mm 0.00 in0.0 mm 0.05 in1.3 mm
02:00 PM 67.8°F19.9°C 50.6°F10.3°C 54% 6.8 mph SSW10.9 kmh SSW 20.8 mph33.5 kmh 29.83 in1010.2 mb 0.00 in0.0 mm 0.00 in0.0 mm 0.05 in1.3 mm
02:10 PM 66.9°F19.4°C 49.2°F9.6°C 53% 9.2 mph SSE14.8 kmh SSE 23.6 mph38.0 kmh 29.83 in1010.2 mb 0.00 in0.0 mm 0.00 in0.0 mm 0.05 in1.3 mm
02:20 PM 66.2°F19.0°C 48.0°F8.9°C 52% 10.5 mph S16.9 kmh S 21.8 mph35.1 kmh 29.83 in1010.2 mb 0.00 in0.0 mm 0.00 in0.0 mm 0.05 in1.3 mm
02:30 PM 65.8°F18.8°C 47.7°F8.7°C 52% 6.2 mph SSE10.0 kmh SSE 21.8 mph35.1 kmh 29.80 in1009.1 mb 0.00 in0.0 mm 0.00 in0.0 mm 0.05 in1.3 mm
02:40 PM 65.5°F18.6°C 47.9°F8.8°C 53% 3.9 mph S6.3 kmh S 6.1 mph9.8 kmh 29.80 in1009.1 mb 0.00 in0.0 mm 0.00 in0.0 mm 0.05 in1.3 mm
02:50 PM 65.1°F18.4°C 47.6°F8.7°C 53% 5.3 mph S8.5 kmh S 16.5 mph26.6 kmh 29.83 in1010.2 mb 0.00 in0.0 mm 0.00 in0.0 mm 0.05 in1.3 mm
03:00 PM 65.1°F18.4°C 47.6°F8.7°C 53% 5.6 mph SW9.0 kmh SW 11.8 mph19.0 kmh 29.80 in1009.1 mb 0.00 in0.0 mm 0.00 in0.0 mm 0.05 in1.3 mm
03:10 PM 64.9°F18.3°C 47.4°F8.6°C 53% 5.5 mph S8.9 kmh S 12.2 mph19.6 kmh 29.80 in1009.1 mb 0.00 in0.0 mm 0.00 in0.0 mm 0.05 in1.3 mm
03:20 PM 64.6°F18.1°C 47.1°F8.4°C 53% 6.4 mph S10.3 kmh S 8.9 mph14.3 kmh 29.80 in1009.1 mb 0.00 in0.0 mm 0.00 in0.0 mm 0.05 in1.3 mm
03:30 PM 64.2°F17.9°C 46.7°F8.2°C 53% 6.5 mph S10.5 kmh S 11.8 mph19.0 kmh 29.83 in1010.2 mb 0.00 in0.0 mm 0.00 in0.0 mm 0.05 in1.3 mm
03:40 PM 63.7°F17.6°C 46.2°F7.9°C 53% 7.3 mph S11.7 kmh S 14.0 mph22.5 kmh 29.83 in1010.2 mb 0.00 in0.0 mm 0.00 in0.0 mm 0.05 in1.3 mm
03:50 PM 63.7°F17.6°C 46.2°F7.9°C 53% 4.2 mph S6.8 kmh S 6.4 mph10.3 kmh 29.80 in1009.1 mb 0.00 in0.0 mm 0.00 in0.0 mm 0.05 in1.3 mm
04:00 PM 63.7°F17.6°C 46.2°F7.9°C 53% 4.1 mph S6.6 kmh S 5.0 mph8.0 kmh 29.80 in1009.1 mb 0.00 in0.0 mm 0.00 in0.0 mm 0.05 in1.3 mm
04:10 PM 63.9°F17.7°C 46.9°F8.3°C 54% 1.7 mph SE2.7 kmh SE 2.1 mph3.4 kmh 29.80 in1009.1 mb 0.00 in0.0 mm 0.00 in0.0 mm 0.05 in1.3 mm
04:20 PM 64.0°F17.8°C 47.1°F8.4°C 54% 2.8 mph SE4.5 kmh SE 10.0 mph16.1 kmh 29.80 in1009.1 mb 0.00 in0.0 mm 0.00 in0.0 mm 0.05 in1.3 mm
04:30 PM 63.9°F17.7°C 46.9°F8.3°C 54% 7.3 mph SE11.7 kmh SE 10.0 mph16.1 kmh 29.80 in1009.1 mb 0.00 in0.0 mm 0.00 in0.0 mm 0.05 in1.3 mm
04:40 PM 63.7°F17.6°C 46.7°F8.2°C 54% 2.7 mph WSW4.3 kmh WSW 5.7 mph9.2 kmh 29.80 in1009.1 mb 0.00 in0.0 mm 0.00 in0.0 mm 0.05 in1.3 mm
04:50 PM 63.5°F17.5°C 47.0°F8.3°C 55% 4.8 mph SSE7.7 kmh SSE 9.7 mph15.6 kmh 29.80 in1009.1 mb 0.00 in0.0 mm 0.00 in0.0 mm 0.05 in1.3 mm
05:00 PM 63.3°F17.4°C 46.9°F8.3°C 55% 5.5 mph S8.9 kmh S 6.8 mph10.9 kmh 29.80 in1009.1 mb 0.00 in0.0 mm 0.00 in0.0 mm 0.05 in1.3 mm
05:10 PM 63.0°F17.2°C 47.5°F8.6°C 57% 3.8 mph SSE6.1 kmh SSE 6.8 mph10.9 kmh 29.80 in1009.1 mb 0.00 in0.0 mm 0.00 in0.0 mm 0.05 in1.3 mm
05:20 PM 62.8°F17.1°C 47.8°F8.8°C 58% 3.6 mph SSE5.8 kmh SSE 10.0 mph16.1 kmh 29.80 in1009.1 mb 0.00 in0.0 mm 0.00 in0.0 mm 0.05 in1.3 mm
05:30 PM 62.6°F17.0°C 48.1°F8.9°C 59% 7.1 mph S11.4 kmh S 9.3 mph15.0 kmh 29.80 in1009.1 mb 0.00 in0.0 mm 0.00 in0.0 mm 0.05 in1.3 mm
05:40 PM 62.4°F16.9°C 48.8°F9.3°C 61% 5.4 mph S8.7 kmh S 7.9 mph12.7 kmh 29.80 in1009.1 mb 0.00 in0.0 mm 0.00 in0.0 mm 0.05 in1.3 mm
05:50 PM 62.2°F16.8°C 49.1°F9.5°C 62% 4.4 mph S7.1 kmh S 6.4 mph10.3 kmh 29.80 in1009.1 mb 0.00 in0.0 mm 0.00 in0.0 mm 0.05 in1.3 mm
06:00 PM 61.9°F16.6°C 49.6°F9.8°C 64% 5.0 mph S8.0 kmh S 6.4 mph10.3 kmh 29.80 in1009.1 mb 0.00 in0.0 mm 0.00 in0.0 mm 0.05 in1.3 mm
06:10 PM 61.2°F16.2°C 51.3°F10.7°C 70% 9.1 mph SSE14.6 kmh SSE 23.3 mph37.5 kmh 29.80 in1009.1 mb 0.00 in0.0 mm 0.00 in0.0 mm 0.05 in1.3 mm
06:20 PM 60.1°F15.6°C 51.8°F11.0°C 74% 6.7 mph SSE10.8 kmh SSE 15.7 mph25.3 kmh 29.80 in1009.1 mb 0.00 in0.0 mm 0.00 in0.0 mm 0.05 in1.3 mm
06:30 PM 59.5°F15.3°C 52.7°F11.5°C 78% 5.3 mph SE8.5 kmh SE 10.0 mph16.1 kmh 29.80 in1009.1 mb 0.00 in0.0 mm 0.00 in0.0 mm 0.05 in1.3 mm
06:40 PM 59.0°F15.0°C 52.5°F11.4°C 79% 5.3 mph SSE8.5 kmh SSE 10.0 mph16.1 kmh 29.80 in1009.1 mb 0.00 in0.0 mm 0.00 in0.0 mm 0.05 in1.3 mm
06:50 PM 58.6°F14.8°C 52.8°F11.6°C 81% 6.3 mph SSE10.1 kmh SSE 10.7 mph17.2 kmh 29.80 in1009.1 mb 0.00 in0.0 mm 0.00 in0.0 mm 0.05 in1.3 mm
07:00 PM 58.3°F14.6°C 52.8°F11.6°C 82% 1.8 mph ESE2.9 kmh ESE 6.1 mph9.8 kmh 29.80 in1009.1 mb 0.00 in0.0 mm 0.00 in0.0 mm 0.05 in1.3 mm
07:10 PM 58.1°F14.5°C 53.0°F11.7°C 83% 1.8 mph SE2.9 kmh SE 5.7 mph9.2 kmh 29.80 in1009.1 mb 0.00 in0.0 mm 0.00 in0.0 mm 0.05 in1.3 mm
07:20 PM 57.9°F14.4°C 53.4°F11.9°C 85% 5.3 mph SE8.5 kmh SE 9.3 mph15.0 kmh 29.80 in1009.1 mb 0.00 in0.0 mm 0.00 in0.0 mm 0.05 in1.3 mm
07:30 PM 57.7°F14.3°C 53.6°F12.0°C 86% 7.5 mph SE12.1 kmh SE 12.2 mph19.6 kmh 29.80 in1009.1 mb 0.00 in0.0 mm 0.00 in0.0 mm 0.05 in1.3 mm
07:40 PM 57.7°F14.3°C 53.6°F12.0°C 86% 6.3 mph SE10.1 kmh SE 12.5 mph20.1 kmh 29.80 in1009.1 mb 0.00 in0.0 mm 0.00 in0.0 mm 0.05 in1.3 mm
07:50 PM 57.7°F14.3°C 53.9°F12.2°C 87% 5.6 mph ESE9.0 kmh ESE 7.9 mph12.7 kmh 29.80 in1009.1 mb 0.00 in0.0 mm 0.00 in0.0 mm 0.05 in1.3 mm
08:00 PM 57.7°F14.3°C 53.9°F12.2°C 87% 5.2 mph ESE8.4 kmh ESE 12.5 mph20.1 kmh 29.80 in1009.1 mb 0.00 in0.0 mm 0.00 in0.0 mm 0.05 in1.3 mm
08:10 PM 57.7°F14.3°C 54.2°F12.3°C 88% 4.1 mph SE6.6 kmh SE 12.5 mph20.1 kmh 29.80 in1009.1 mb 0.00 in0.0 mm 0.00 in0.0 mm 0.05 in1.3 mm
08:20 PM 57.7°F14.3°C 54.2°F12.3°C 88% 5.3 mph SE8.5 kmh SE 8.9 mph14.3 kmh 29.80 in1009.1 mb 0.00 in0.0 mm 0.00 in0.0 mm 0.05 in1.3 mm
08:30 PM 57.7°F14.3°C 54.5°F12.5°C 89% 6.4 mph SE10.3 kmh SE 9.3 mph15.0 kmh 29.80 in1009.1 mb 0.00 in0.0 mm 0.00 in0.0 mm 0.05 in1.3 mm
08:40 PM 57.7°F14.3°C 54.5°F12.5°C 89% 6.1 mph SE9.8 kmh SE 10.0 mph16.1 kmh 29.80 in1009.1 mb 0.00 in0.0 mm 0.00 in0.0 mm 0.05 in1.3 mm
08:50 PM 57.7°F14.3°C 54.5°F12.5°C 89% 3.8 mph E6.1 kmh E 8.9 mph14.3 kmh 29.80 in1009.1 mb 0.00 in0.0 mm 0.00 in0.0 mm 0.05 in1.3 mm
09:00 PM 57.7°F14.3°C 54.8°F12.7°C 90% 4.4 mph SE7.1 kmh SE 10.4 mph16.7 kmh 29.80 in1009.1 mb 0.00 in0.0 mm 0.00 in0.0 mm 0.05 in1.3 mm
09:10 PM 57.7°F14.3°C 54.8°F12.7°C 90% 4.5 mph SSE7.2 kmh SSE 10.4 mph16.7 kmh 29.80 in1009.1 mb 0.00 in0.0 mm 0.00 in0.0 mm 0.05 in1.3 mm
09:20 PM 57.9°F14.4°C 55.0°F12.8°C 90% 5.5 mph ESE8.9 kmh ESE 11.5 mph18.5 kmh 29.80 in1009.1 mb 0.00 in0.0 mm 0.00 in0.0 mm 0.05 in1.3 mm
09:30 PM 57.9°F14.4°C 55.3°F12.9°C 91% 5.9 mph SE9.5 kmh SE 10.4 mph16.7 kmh 29.80 in1009.1 mb 0.00 in0.0 mm 0.00 in0.0 mm 0.05 in1.3 mm
09:40 PM 57.9°F14.4°C 55.3°F12.9°C 91% 6.0 mph SE9.7 kmh SE 9.3 mph15.0 kmh 29.80 in1009.1 mb 0.00 in0.0 mm 0.00 in0.0 mm 0.05 in1.3 mm
09:50 PM 58.1°F14.5°C 55.5°F13.1°C 91% 4.0 mph ESE6.4 kmh ESE 13.6 mph21.9 kmh 29.80 in1009.1 mb 0.00 in0.0 mm 0.00 in0.0 mm 0.05 in1.3 mm
10:00 PM 58.1°F14.5°C 55.5°F13.1°C 91% 3.1 mph SE5.0 kmh SE 9.7 mph15.6 kmh 29.80 in1009.1 mb 0.00 in0.0 mm 0.00 in0.0 mm 0.05 in1.3 mm
10:10 PM 58.1°F14.5°C 55.5°F13.1°C 91% 5.0 mph SE8.0 kmh SE 9.7 mph15.6 kmh 29.80 in1009.1 mb 0.00 in0.0 mm 0.00 in0.0 mm 0.05 in1.3 mm
10:20 PM 58.3°F14.6°C 56.0°F13.3°C 92% 4.6 mph ESE7.4 kmh ESE 11.5 mph18.5 kmh 29.80 in1009.1 mb 0.05 in1.3 mm 0.30 in7.6 mm 0.09 in2.3 mm
10:30 PM 58.3°F14.6°C 56.0°F13.3°C 92% 5.7 mph ESE9.2 kmh ESE 10.4 mph16.7 kmh 29.80 in1009.1 mb 0.05 in1.3 mm 0.00 in0.0 mm 0.09 in2.3 mm
10:40 PM 58.3°F14.6°C 56.3°F13.5°C 93% 5.4 mph SE8.7 kmh SE 12.5 mph20.1 kmh 29.80 in1009.1 mb 0.05 in1.3 mm 0.00 in0.0 mm 0.09 in2.3 mm
10:50 PM 58.5°F14.7°C 56.4°F13.6°C 93% 5.7 mph E9.2 kmh E 11.5 mph18.5 kmh 29.80 in1009.1 mb 0.05 in1.3 mm 0.00 in0.0 mm 0.09 in2.3 mm
11:00 PM 58.5°F14.7°C 56.4°F13.6°C 93% 4.2 mph E6.8 kmh E 7.9 mph12.7 kmh 29.77 in1008.1 mb 0.05 in1.3 mm 0.00 in0.0 mm 0.10 in2.5 mm
11:10 PM 58.5°F14.7°C 56.4°F13.6°C 93% 5.3 mph E8.5 kmh E 10.0 mph16.1 kmh 29.77 in1008.1 mb 0.05 in1.3 mm 0.00 in0.0 mm 0.10 in2.5 mm
11:20 PM 58.6°F14.8°C 56.6°F13.7°C 93% 5.7 mph SE9.2 kmh SE 11.5 mph18.5 kmh 29.77 in1008.1 mb 0.00 in0.0 mm 0.00 in0.0 mm 0.10 in2.5 mm
11:30 PM 58.6°F14.8°C 56.6°F13.7°C 93% 5.6 mph ESE9.0 kmh ESE 9.3 mph15.0 kmh 29.77 in1008.1 mb 0.00 in0.0 mm 0.00 in0.0 mm 0.10 in2.5 mm
11:40 PM 58.6°F14.8°C 56.6°F13.7°C 93% 5.6 mph SE9.0 kmh SE 9.3 mph15.0 kmh 29.77 in1008.1 mb 0.00 in0.0 mm 0.00 in0.0 mm 0.10 in2.5 mm
11:50 PM 58.6°F14.8°C 56.6°F13.7°C 93% 3.5 mph E5.6 kmh E 6.1 mph9.8 kmh 29.77 in1008.1 mb 0.00 in0.0 mm 0.00 in0.0 mm 0.10 in2.5 mm